sensor_id;sensor_type;location;lat;lon;timestamp;P1;durP1;ratioP1;P2;durP2;ratioP2
14486;SDS011;7329;50.866;4.366;2022-12-18T00:01:59;17.07;;;13.23;;
14486;SDS011;7329;50.866;4.366;2022-12-18T00:04:05;16.47;;;13.33;;
14486;SDS011;7329;50.866;4.366;2022-12-18T00:06:09;15.33;;;13.17;;
14486;SDS011;7329;50.866;4.366;2022-12-18T00:08:12;16.57;;;13.87;;
14486;SDS011;7329;50.866;4.366;2022-12-18T00:10:14;14.47;;;12.93;;
14486;SDS011;7329;50.866;4.366;2022-12-18T00:12:16;15.73;;;13.67;;
14486;SDS011;7329;50.866;4.366;2022-12-18T00:14:19;15.13;;;13.47;;
14486;SDS011;7329;50.866;4.366;2022-12-18T00:16:22;16.47;;;13.57;;
14486;SDS011;7329;50.866;4.366;2022-12-18T00:18:26;16.10;;;13.20;;
14486;SDS011;7329;50.866;4.366;2022-12-18T00:20:29;16.50;;;13.97;;
14486;SDS011;7329;50.866;4.366;2022-12-18T00:22:32;15.33;;;12.23;;
14486;SDS011;7329;50.866;4.366;2022-12-18T00:24:34;16.77;;;13.20;;
14486;SDS011;7329;50.866;4.366;2022-12-18T00:26:37;15.40;;;13.10;;
14486;SDS011;7329;50.866;4.366;2022-12-18T00:28:40;15.00;;;12.57;;
14486;SDS011;7329;50.866;4.366;2022-12-18T00:30:42;15.17;;;13.50;;
14486;SDS011;7329;50.866;4.366;2022-12-18T00:32:45;17.03;;;13.73;;
14486;SDS011;7329;50.866;4.366;2022-12-18T00:34:47;15.80;;;13.43;;
14486;SDS011;7329;50.866;4.366;2022-12-18T00:36:51;16.13;;;13.00;;
14486;SDS011;7329;50.866;4.366;2022-12-18T00:38:53;15.87;;;13.40;;
14486;SDS011;7329;50.866;4.366;2022-12-18T00:40:56;16.10;;;13.33;;
14486;SDS011;7329;50.866;4.366;2022-12-18T00:42:59;14.73;;;13.10;;
14486;SDS011;7329;50.866;4.366;2022-12-18T00:45:00;16.87;;;13.37;;
14486;SDS011;7329;50.866;4.366;2022-12-18T00:47:02;17.90;;;14.23;;
14486;SDS011;7329;50.866;4.366;2022-12-18T00:49:05;18.37;;;13.13;;
14486;SDS011;7329;50.866;4.366;2022-12-18T00:51:07;16.23;;;13.07;;
14486;SDS011;7329;50.866;4.366;2022-12-18T00:53:11;15.80;;;13.27;;
14486;SDS011;7329;50.866;4.366;2022-12-18T00:55:13;15.70;;;13.17;;
14486;SDS011;7329;50.866;4.366;2022-12-18T00:57:16;14.47;;;12.30;;
14486;SDS011;7329;50.866;4.366;2022-12-18T00:59:19;15.93;;;13.07;;
14486;SDS011;7329;50.866;4.366;2022-12-18T01:01:21;16.37;;;13.73;;
14486;SDS011;7329;50.866;4.366;2022-12-18T01:03:23;16.10;;;12.83;;
14486;SDS011;7329;50.866;4.366;2022-12-18T01:05:26;15.37;;;12.90;;
14486;SDS011;7329;50.866;4.366;2022-12-18T01:07:29;15.67;;;13.40;;
14486;SDS011;7329;50.866;4.366;2022-12-18T01:09:33;15.50;;;12.83;;
14486;SDS011;7329;50.866;4.366;2022-12-18T01:11:35;16.80;;;13.47;;
14486;SDS011;7329;50.866;4.366;2022-12-18T01:13:37;14.87;;;12.80;;
14486;SDS011;7329;50.866;4.366;2022-12-18T01:15:47;15.43;;;12.77;;
14486;SDS011;7329;50.866;4.366;2022-12-18T01:17:51;15.53;;;12.93;;
14486;SDS011;7329;50.866;4.366;2022-12-18T01:19:57;13.23;;;11.83;;
14486;SDS011;7329;50.866;4.366;2022-12-18T01:21:59;14.57;;;12.77;;
14486;SDS011;7329;50.866;4.366;2022-12-18T01:24:01;15.73;;;12.93;;
14486;SDS011;7329;50.866;4.366;2022-12-18T01:26:06;14.40;;;12.80;;
14486;SDS011;7329;50.866;4.366;2022-12-18T01:28:09;15.70;;;12.87;;
14486;SDS011;7329;50.866;4.366;2022-12-18T01:30:12;16.43;;;12.90;;
14486;SDS011;7329;50.866;4.366;2022-12-18T01:32:14;16.20;;;12.83;;
14486;SDS011;7329;50.866;4.366;2022-12-18T01:34:17;15.43;;;12.93;;
14486;SDS011;7329;50.866;4.366;2022-12-18T01:36:20;15.07;;;12.40;;
14486;SDS011;7329;50.866;4.366;2022-12-18T01:38:23;14.53;;;12.73;;
14486;SDS011;7329;50.866;4.366;2022-12-18T01:40:25;16.67;;;13.43;;
14486;SDS011;7329;50.866;4.366;2022-12-18T01:42:29;14.33;;;12.30;;
14486;SDS011;7329;50.866;4.366;2022-12-18T01:46:57;15.23;;;12.93;;
14486;SDS011;7329;50.866;4.366;2022-12-18T01:49:00;13.53;;;11.90;;
14486;SDS011;7329;50.866;4.366;2022-12-18T01:51:03;16.13;;;13.37;;
14486;SDS011;7329;50.866;4.366;2022-12-18T01:53:10;15.17;;;12.57;;
14486;SDS011;7329;50.866;4.366;2022-12-18T01:55:17;14.70;;;12.17;;
14486;SDS011;7329;50.866;4.366;2022-12-18T01:57:21;16.23;;;13.10;;
14486;SDS011;7329;50.866;4.366;2022-12-18T01:59:26;14.83;;;13.03;;
14486;SDS011;7329;50.866;4.366;2022-12-18T02:01:29;15.17;;;12.63;;
14486;SDS011;7329;50.866;4.366;2022-12-18T02:03:33;14.30;;;12.43;;
14486;SDS011;7329;50.866;4.366;2022-12-18T02:05:38;15.27;;;13.00;;
14486;SDS011;7329;50.866;4.366;2022-12-18T02:07:51;16.03;;;12.80;;
14486;SDS011;7329;50.866;4.366;2022-12-18T02:10:03;14.30;;;12.40;;
14486;SDS011;7329;50.866;4.366;2022-12-18T02:12:13;15.03;;;12.40;;
14486;SDS011;7329;50.866;4.366;2022-12-18T02:14:22;15.33;;;11.80;;
14486;SDS011;7329;50.866;4.366;2022-12-18T02:16:34;15.97;;;12.70;;
14486;SDS011;7329;50.866;4.366;2022-12-18T02:18:42;14.33;;;12.10;;
14486;SDS011;7329;50.866;4.366;2022-12-18T02:20:48;15.03;;;12.07;;
14486;SDS011;7329;50.866;4.366;2022-12-18T02:23:00;14.40;;;11.73;;
14486;SDS011;7329;50.866;4.366;2022-12-18T02:25:12;13.73;;;11.80;;
14486;SDS011;7329;50.866;4.366;2022-12-18T02:27:28;13.17;;;11.77;;
14486;SDS011;7329;50.866;4.366;2022-12-18T02:29:34;14.40;;;12.40;;
14486;SDS011;7329;50.866;4.366;2022-12-18T02:31:42;16.00;;;12.63;;
14486;SDS011;7329;50.866;4.366;2022-12-18T02:33:47;13.47;;;11.50;;
14486;SDS011;7329;50.866;4.366;2022-12-18T02:35:50;14.27;;;11.40;;
14486;SDS011;7329;50.866;4.366;2022-12-18T02:37:55;14.00;;;11.77;;
14486;SDS011;7329;50.866;4.366;2022-12-18T02:39:58;13.87;;;11.50;;
14486;SDS011;7329;50.866;4.366;2022-12-18T02:42:02;14.47;;;11.90;;
14486;SDS011;7329;50.866;4.366;2022-12-18T02:44:10;13.33;;;11.80;;
14486;SDS011;7329;50.866;4.366;2022-12-18T02:46:23;13.43;;;11.37;;
14486;SDS011;7329;50.866;4.366;2022-12-18T02:48:28;14.00;;;11.93;;
14486;SDS011;7329;50.866;4.366;2022-12-18T02:50:34;13.93;;;12.33;;
14486;SDS011;7329;50.866;4.366;2022-12-18T02:52:41;14.53;;;11.87;;
14486;SDS011;7329;50.866;4.366;2022-12-18T02:54:55;14.40;;;11.87;;
14486;SDS011;7329;50.866;4.366;2022-12-18T02:57:03;13.37;;;11.80;;
14486;SDS011;7329;50.866;4.366;2022-12-18T02:59:16;12.93;;;10.87;;
14486;SDS011;7329;50.866;4.366;2022-12-18T03:01:28;15.77;;;12.60;;
14486;SDS011;7329;50.866;4.366;2022-12-18T03:03:38;15.13;;;11.53;;
14486;SDS011;7329;50.866;4.366;2022-12-18T03:05:45;14.97;;;12.77;;
14486;SDS011;7329;50.866;4.366;2022-12-18T03:07:55;13.60;;;11.90;;
14486;SDS011;7329;50.866;4.366;2022-12-18T03:10:00;13.73;;;11.80;;
14486;SDS011;7329;50.866;4.366;2022-12-18T03:12:04;15.07;;;11.93;;
14486;SDS011;7329;50.866;4.366;2022-12-18T03:14:26;15.57;;;11.60;;
14486;SDS011;7329;50.866;4.366;2022-12-18T03:16:32;14.60;;;11.97;;
14486;SDS011;7329;50.866;4.366;2022-12-18T03:18:37;12.87;;;10.70;;
14486;SDS011;7329;50.866;4.366;2022-12-18T03:20:44;15.33;;;11.77;;
14486;SDS011;7329;50.866;4.366;2022-12-18T03:22:50;12.80;;;11.30;;
14486;SDS011;7329;50.866;4.366;2022-12-18T03:24:56;12.90;;;10.97;;
14486;SDS011;7329;50.866;4.366;2022-12-18T03:27:00;15.17;;;11.37;;
14486;SDS011;7329;50.866;4.366;2022-12-18T03:29:07;13.23;;;11.00;;
14486;SDS011;7329;50.866;4.366;2022-12-18T03:31:15;13.37;;;11.30;;
14486;SDS011;7329;50.866;4.366;2022-12-18T03:33:19;12.50;;;10.87;;
14486;SDS011;7329;50.866;4.366;2022-12-18T03:35:28;14.67;;;11.23;;
14486;SDS011;7329;50.866;4.366;2022-12-18T03:37:32;13.27;;;11.03;;
14486;SDS011;7329;50.866;4.366;2022-12-18T03:39:34;12.17;;;10.80;;
14486;SDS011;7329;50.866;4.366;2022-12-18T03:41:39;15.30;;;12.03;;
14486;SDS011;7329;50.866;4.366;2022-12-18T03:43:48;15.00;;;11.27;;
14486;SDS011;7329;50.866;4.366;2022-12-18T03:45:54;11.70;;;10.40;;
14486;SDS011;7329;50.866;4.366;2022-12-18T03:48:05;13.17;;;11.07;;
14486;SDS011;7329;50.866;4.366;2022-12-18T03:50:14;12.70;;;11.20;;
14486;SDS011;7329;50.866;4.366;2022-12-18T03:52:23;11.70;;;10.50;;
14486;SDS011;7329;50.866;4.366;2022-12-18T03:54:29;14.67;;;11.37;;
14486;SDS011;7329;50.866;4.366;2022-12-18T03:56:34;13.50;;;11.43;;
14486;SDS011;7329;50.866;4.366;2022-12-18T03:58:40;12.87;;;10.67;;
14486;SDS011;7329;50.866;4.366;2022-12-18T04:00:45;14.80;;;11.73;;
14486;SDS011;7329;50.866;4.366;2022-12-18T04:02:51;13.07;;;10.47;;
14486;SDS011;7329;50.866;4.366;2022-12-18T04:04:57;13.57;;;11.00;;
14486;SDS011;7329;50.866;4.366;2022-12-18T04:07:02;12.67;;;10.70;;
14486;SDS011;7329;50.866;4.366;2022-12-18T04:09:06;12.13;;;10.47;;
14486;SDS011;7329;50.866;4.366;2022-12-18T04:11:08;13.43;;;10.83;;
14486;SDS011;7329;50.866;4.366;2022-12-18T04:13:11;12.77;;;11.00;;
14486;SDS011;7329;50.866;4.366;2022-12-18T04:15:13;12.00;;;10.60;;
14486;SDS011;7329;50.866;4.366;2022-12-18T04:17:16;12.37;;;10.20;;
14486;SDS011;7329;50.866;4.366;2022-12-18T04:19:18;12.10;;;10.10;;
14486;SDS011;7329;50.866;4.366;2022-12-18T04:21:22;13.10;;;10.40;;
14486;SDS011;7329;50.866;4.366;2022-12-18T04:23:24;12.57;;;10.10;;
14486;SDS011;7329;50.866;4.366;2022-12-18T04:25:27;11.93;;;9.90;;
14486;SDS011;7329;50.866;4.366;2022-12-18T04:27:29;11.13;;;9.93;;
14486;SDS011;7329;50.866;4.366;2022-12-18T04:29:31;12.00;;;10.70;;
14486;SDS011;7329;50.866;4.366;2022-12-18T04:31:34;14.07;;;11.10;;
14486;SDS011;7329;50.866;4.366;2022-12-18T04:33:36;13.23;;;10.53;;
14486;SDS011;7329;50.866;4.366;2022-12-18T04:35:39;11.37;;;10.17;;
14486;SDS011;7329;50.866;4.366;2022-12-18T04:37:43;12.20;;;10.17;;
14486;SDS011;7329;50.866;4.366;2022-12-18T04:39:45;12.30;;;9.93;;
14486;SDS011;7329;50.866;4.366;2022-12-18T04:41:48;12.13;;;10.37;;
14486;SDS011;7329;50.866;4.366;2022-12-18T04:43:50;13.40;;;10.50;;
14486;SDS011;7329;50.866;4.366;2022-12-18T04:45:52;12.20;;;10.30;;
14486;SDS011;7329;50.866;4.366;2022-12-18T04:47:56;11.40;;;10.03;;
14486;SDS011;7329;50.866;4.366;2022-12-18T04:49:59;11.70;;;10.47;;
14486;SDS011;7329;50.866;4.366;2022-12-18T04:52:01;12.60;;;10.70;;
14486;SDS011;7329;50.866;4.366;2022-12-18T04:54:05;11.63;;;10.43;;
14486;SDS011;7329;50.866;4.366;2022-12-18T04:56:08;11.03;;;9.60;;
14486;SDS011;7329;50.866;4.366;2022-12-18T04:58:12;11.83;;;10.13;;
14486;SDS011;7329;50.866;4.366;2022-12-18T05:00:14;11.63;;;10.07;;
14486;SDS011;7329;50.866;4.366;2022-12-18T05:02:17;12.63;;;10.30;;
14486;SDS011;7329;50.866;4.366;2022-12-18T05:04:19;11.77;;;9.93;;
14486;SDS011;7329;50.866;4.366;2022-12-18T05:06:22;12.53;;;10.17;;
14486;SDS011;7329;50.866;4.366;2022-12-18T05:08:24;11.33;;;9.40;;
14486;SDS011;7329;50.866;4.366;2022-12-18T05:10:28;10.20;;;9.10;;
14486;SDS011;7329;50.866;4.366;2022-12-18T05:12:30;11.97;;;10.20;;
14486;SDS011;7329;50.866;4.366;2022-12-18T05:14:33;10.73;;;9.33;;
14486;SDS011;7329;50.866;4.366;2022-12-18T05:16:35;11.43;;;9.80;;
14486;SDS011;7329;50.866;4.366;2022-12-18T05:18:37;10.13;;;9.07;;
14486;SDS011;7329;50.866;4.366;2022-12-18T05:20:40;10.43;;;9.30;;
14486;SDS011;7329;50.866;4.366;2022-12-18T05:22:42;10.97;;;9.37;;
14486;SDS011;7329;50.866;4.366;2022-12-18T05:24:44;13.07;;;10.27;;
14486;SDS011;7329;50.866;4.366;2022-12-18T05:26:48;11.17;;;9.87;;
14486;SDS011;7329;50.866;4.366;2022-12-18T05:28:51;11.20;;;9.70;;
14486;SDS011;7329;50.866;4.366;2022-12-18T05:30:55;11.03;;;9.20;;
14486;SDS011;7329;50.866;4.366;2022-12-18T05:32:58;11.20;;;9.43;;
14486;SDS011;7329;50.866;4.366;2022-12-18T05:35:01;11.83;;;10.03;;
14486;SDS011;7329;50.866;4.366;2022-12-18T05:37:03;12.43;;;10.17;;
14486;SDS011;7329;50.866;4.366;2022-12-18T05:39:06;10.67;;;8.97;;
14486;SDS011;7329;50.866;4.366;2022-12-18T05:41:09;10.67;;;9.10;;
14486;SDS011;7329;50.866;4.366;2022-12-18T05:43:12;10.33;;;9.23;;
14486;SDS011;7329;50.866;4.366;2022-12-18T05:45:15;11.17;;;9.53;;
14486;SDS011;7329;50.866;4.366;2022-12-18T05:47:17;10.97;;;9.23;;
14486;SDS011;7329;50.866;4.366;2022-12-18T05:49:19;10.13;;;8.83;;
14486;SDS011;7329;50.866;4.366;2022-12-18T05:51:22;10.50;;;9.30;;
14486;SDS011;7329;50.866;4.366;2022-12-18T05:53:24;9.83;;;8.53;;
14486;SDS011;7329;50.866;4.366;2022-12-18T05:55:27;12.30;;;9.57;;
14486;SDS011;7329;50.866;4.366;2022-12-18T05:57:29;11.63;;;8.97;;
14486;SDS011;7329;50.866;4.366;2022-12-18T05:59:33;10.63;;;9.00;;
14486;SDS011;7329;50.866;4.366;2022-12-18T06:01:35;10.53;;;9.30;;
14486;SDS011;7329;50.866;4.366;2022-12-18T06:03:37;10.13;;;8.70;;
14486;SDS011;7329;50.866;4.366;2022-12-18T06:05:40;11.10;;;8.17;;
14486;SDS011;7329;50.866;4.366;2022-12-18T06:07:44;11.10;;;8.60;;
14486;SDS011;7329;50.866;4.366;2022-12-18T06:09:46;9.20;;;8.23;;
14486;SDS011;7329;50.866;4.366;2022-12-18T06:11:49;10.70;;;9.27;;
14486;SDS011;7329;50.866;4.366;2022-12-18T06:13:53;10.07;;;8.90;;
14486;SDS011;7329;50.866;4.366;2022-12-18T06:15:59;10.17;;;9.07;;
14486;SDS011;7329;50.866;4.366;2022-12-18T06:18:04;11.40;;;8.90;;
14486;SDS011;7329;50.866;4.366;2022-12-18T06:20:06;9.80;;;8.60;;
14486;SDS011;7329;50.866;4.366;2022-12-18T06:22:09;10.67;;;8.53;;
14486;SDS011;7329;50.866;4.366;2022-12-18T06:24:12;9.80;;;8.80;;
14486;SDS011;7329;50.866;4.366;2022-12-18T06:26:14;10.30;;;8.57;;
14486;SDS011;7329;50.866;4.366;2022-12-18T06:28:16;9.83;;;8.30;;
14486;SDS011;7329;50.866;4.366;2022-12-18T06:30:19;9.07;;;7.80;;
14486;SDS011;7329;50.866;4.366;2022-12-18T06:32:23;9.70;;;8.43;;
14486;SDS011;7329;50.866;4.366;2022-12-18T06:34:25;11.83;;;8.80;;
14486;SDS011;7329;50.866;4.366;2022-12-18T06:36:27;9.53;;;8.53;;
14486;SDS011;7329;50.866;4.366;2022-12-18T06:38:31;10.50;;;8.63;;
14486;SDS011;7329;50.866;4.366;2022-12-18T06:40:34;9.80;;;8.20;;
14486;SDS011;7329;50.866;4.366;2022-12-18T06:42:39;10.20;;;9.07;;
14486;SDS011;7329;50.866;4.366;2022-12-18T06:44:41;10.07;;;8.30;;
14486;SDS011;7329;50.866;4.366;2022-12-18T06:46:44;9.60;;;8.53;;
14486;SDS011;7329;50.866;4.366;2022-12-18T06:48:48;8.87;;;7.60;;
14486;SDS011;7329;50.866;4.366;2022-12-18T06:50:51;10.07;;;8.50;;
14486;SDS011;7329;50.866;4.366;2022-12-18T06:52:53;9.67;;;8.53;;
14486;SDS011;7329;50.866;4.366;2022-12-18T06:54:56;8.80;;;7.53;;
14486;SDS011;7329;50.866;4.366;2022-12-18T06:56:58;10.00;;;7.93;;
14486;SDS011;7329;50.866;4.366;2022-12-18T06:59:00;9.13;;;7.97;;
14486;SDS011;7329;50.866;4.366;2022-12-18T07:01:03;9.43;;;8.33;;
14486;SDS011;7329;50.866;4.366;2022-12-18T07:03:07;10.17;;;7.90;;
14486;SDS011;7329;50.866;4.366;2022-12-18T07:05:10;9.57;;;8.33;;
14486;SDS011;7329;50.866;4.366;2022-12-18T07:07:13;8.93;;;7.87;;
14486;SDS011;7329;50.866;4.366;2022-12-18T07:09:15;9.53;;;7.87;;
14486;SDS011;7329;50.866;4.366;2022-12-18T07:11:18;9.00;;;8.10;;
14486;SDS011;7329;50.866;4.366;2022-12-18T07:13:20;9.00;;;7.87;;
14486;SDS011;7329;50.866;4.366;2022-12-18T07:15:23;9.23;;;7.90;;
14486;SDS011;7329;50.866;4.366;2022-12-18T07:17:25;8.80;;;7.83;;
14486;SDS011;7329;50.866;4.366;2022-12-18T07:19:28;9.30;;;7.77;;
14486;SDS011;7329;50.866;4.366;2022-12-18T07:21:32;9.83;;;8.37;;
14486;SDS011;7329;50.866;4.366;2022-12-18T07:23:35;10.33;;;8.13;;
14486;SDS011;7329;50.866;4.366;2022-12-18T07:25:37;9.23;;;7.83;;
14486;SDS011;7329;50.866;4.366;2022-12-18T07:27:40;10.03;;;8.00;;
14486;SDS011;7329;50.866;4.366;2022-12-18T07:29:42;10.00;;;7.83;;
14486;SDS011;7329;50.866;4.366;2022-12-18T07:31:45;9.60;;;7.53;;
14486;SDS011;7329;50.866;4.366;2022-12-18T07:33:47;9.40;;;8.17;;
14486;SDS011;7329;50.866;4.366;2022-12-18T07:35:51;9.70;;;7.77;;
14486;SDS011;7329;50.866;4.366;2022-12-18T07:37:55;11.07;;;8.63;;
14486;SDS011;7329;50.866;4.366;2022-12-18T07:39:58;9.97;;;7.83;;
14486;SDS011;7329;50.866;4.366;2022-12-18T07:42:00;8.17;;;7.30;;
14486;SDS011;7329;50.866;4.366;2022-12-18T07:44:20;8.30;;;7.23;;
14486;SDS011;7329;50.866;4.366;2022-12-18T07:46:22;8.10;;;7.20;;
14486;SDS011;7329;50.866;4.366;2022-12-18T07:48:25;10.30;;;7.70;;
14486;SDS011;7329;50.866;4.366;2022-12-18T07:50:27;9.93;;;7.80;;
14486;SDS011;7329;50.866;4.366;2022-12-18T07:52:29;8.80;;;7.47;;
14486;SDS011;7329;50.866;4.366;2022-12-18T07:54:33;9.60;;;7.27;;
14486;SDS011;7329;50.866;4.366;2022-12-18T07:56:35;9.33;;;7.60;;
14486;SDS011;7329;50.866;4.366;2022-12-18T07:58:38;9.57;;;7.27;;
14486;SDS011;7329;50.866;4.366;2022-12-18T08:00:40;7.87;;;7.07;;
14486;SDS011;7329;50.866;4.366;2022-12-18T08:02:42;9.13;;;7.03;;
14486;SDS011;7329;50.866;4.366;2022-12-18T08:04:45;8.23;;;6.97;;
14486;SDS011;7329;50.866;4.366;2022-12-18T08:06:47;7.67;;;6.87;;
14486;SDS011;7329;50.866;4.366;2022-12-18T08:08:50;9.80;;;7.67;;
14486;SDS011;7329;50.866;4.366;2022-12-18T08:10:55;8.00;;;6.63;;
14486;SDS011;7329;50.866;4.366;2022-12-18T08:12:57;7.83;;;7.03;;
14486;SDS011;7329;50.866;4.366;2022-12-18T08:14:59;9.57;;;7.53;;
14486;SDS011;7329;50.866;4.366;2022-12-18T08:17:02;7.60;;;6.70;;
14486;SDS011;7329;50.866;4.366;2022-12-18T08:19:04;8.10;;;7.00;;
14486;SDS011;7329;50.866;4.366;2022-12-18T08:21:07;8.67;;;6.63;;
14486;SDS011;7329;50.866;4.366;2022-12-18T08:23:10;7.60;;;6.60;;
14486;SDS011;7329;50.866;4.366;2022-12-18T08:25:13;8.43;;;6.97;;
14486;SDS011;7329;50.866;4.366;2022-12-18T08:27:16;7.70;;;6.77;;
14486;SDS011;7329;50.866;4.366;2022-12-18T08:29:19;8.37;;;7.10;;
14486;SDS011;7329;50.866;4.366;2022-12-18T08:31:21;7.43;;;6.63;;
14486;SDS011;7329;50.866;4.366;2022-12-18T08:33:24;7.50;;;6.70;;
14486;SDS011;7329;50.866;4.366;2022-12-18T08:35:27;8.83;;;6.67;;
14486;SDS011;7329;50.866;4.366;2022-12-18T08:37:30;7.77;;;6.67;;
14486;SDS011;7329;50.866;4.366;2022-12-18T08:39:32;8.40;;;6.60;;
14486;SDS011;7329;50.866;4.366;2022-12-18T08:41:35;8.07;;;6.63;;
14486;SDS011;7329;50.866;4.366;2022-12-18T08:43:38;8.53;;;6.83;;
14486;SDS011;7329;50.866;4.366;2022-12-18T08:45:58;8.03;;;6.87;;
14486;SDS011;7329;50.866;4.366;2022-12-18T08:48:01;8.83;;;6.50;;
14486;SDS011;7329;50.866;4.366;2022-12-18T08:50:03;7.23;;;6.40;;
14486;SDS011;7329;50.866;4.366;2022-12-18T08:52:06;8.10;;;7.20;;
14486;SDS011;7329;50.866;4.366;2022-12-18T08:54:10;8.13;;;6.67;;
14486;SDS011;7329;50.866;4.366;2022-12-18T08:56:14;7.83;;;6.40;;
14486;SDS011;7329;50.866;4.366;2022-12-18T08:58:17;7.50;;;6.67;;
14486;SDS011;7329;50.866;4.366;2022-12-18T09:00:21;8.90;;;7.10;;
14486;SDS011;7329;50.866;4.366;2022-12-18T09:02:23;7.20;;;6.20;;
14486;SDS011;7329;50.866;4.366;2022-12-18T09:04:26;8.10;;;6.43;;
14486;SDS011;7329;50.866;4.366;2022-12-18T09:06:28;7.20;;;6.37;;
14486;SDS011;7329;50.866;4.366;2022-12-18T09:08:30;7.63;;;6.53;;
14486;SDS011;7329;50.866;4.366;2022-12-18T09:10:33;8.07;;;6.00;;
14486;SDS011;7329;50.866;4.366;2022-12-18T09:12:35;7.40;;;6.17;;
14486;SDS011;7329;50.866;4.366;2022-12-18T09:14:38;7.70;;;6.57;;
14486;SDS011;7329;50.866;4.366;2022-12-18T09:16:41;8.63;;;6.80;;
14486;SDS011;7329;50.866;4.366;2022-12-18T09:18:44;6.93;;;6.23;;
14486;SDS011;7329;50.866;4.366;2022-12-18T09:20:46;6.53;;;5.60;;
14486;SDS011;7329;50.866;4.366;2022-12-18T09:22:50;8.27;;;6.80;;
14486;SDS011;7329;50.866;4.366;2022-12-18T09:24:53;6.33;;;5.77;;
14486;SDS011;7329;50.866;4.366;2022-12-18T09:26:55;8.53;;;6.33;;
14486;SDS011;7329;50.866;4.366;2022-12-18T09:28:57;7.80;;;6.70;;
14486;SDS011;7329;50.866;4.366;2022-12-18T09:31:03;6.87;;;5.70;;
14486;SDS011;7329;50.866;4.366;2022-12-18T09:33:09;6.47;;;5.77;;
14486;SDS011;7329;50.866;4.366;2022-12-18T09:35:12;7.43;;;6.27;;
14486;SDS011;7329;50.866;4.366;2022-12-18T09:37:14;8.40;;;6.20;;
14486;SDS011;7329;50.866;4.366;2022-12-18T09:39:16;7.57;;;5.97;;
14486;SDS011;7329;50.866;4.366;2022-12-18T09:41:24;7.07;;;6.10;;
14486;SDS011;7329;50.866;4.366;2022-12-18T09:43:41;6.03;;;5.40;;
14486;SDS011;7329;50.866;4.366;2022-12-18T09:45:48;7.77;;;5.67;;
14486;SDS011;7329;50.866;4.366;2022-12-18T09:47:53;6.87;;;6.03;;
14486;SDS011;7329;50.866;4.366;2022-12-18T09:49:58;6.70;;;5.53;;
14486;SDS011;7329;50.866;4.366;2022-12-18T09:52:04;7.47;;;6.17;;
14486;SDS011;7329;50.866;4.366;2022-12-18T09:54:11;7.27;;;5.90;;
14486;SDS011;7329;50.866;4.366;2022-12-18T09:56:18;8.13;;;6.10;;
14486;SDS011;7329;50.866;4.366;2022-12-18T09:58:24;6.07;;;5.47;;
14486;SDS011;7329;50.866;4.366;2022-12-18T10:00:32;6.67;;;5.93;;
14486;SDS011;7329;50.866;4.366;2022-12-18T10:02:34;7.70;;;6.20;;
14486;SDS011;7329;50.866;4.366;2022-12-18T10:04:36;7.50;;;5.73;;
14486;SDS011;7329;50.866;4.366;2022-12-18T10:06:41;7.83;;;5.87;;
14486;SDS011;7329;50.866;4.366;2022-12-18T10:08:49;10.57;;;6.27;;
14486;SDS011;7329;50.866;4.366;2022-12-18T10:10:56;9.63;;;6.37;;
14486;SDS011;7329;50.866;4.366;2022-12-18T10:13:07;7.60;;;5.50;;
14486;SDS011;7329;50.866;4.366;2022-12-18T10:15:17;6.77;;;5.83;;
14486;SDS011;7329;50.866;4.366;2022-12-18T10:17:26;6.80;;;5.87;;
14486;SDS011;7329;50.866;4.366;2022-12-18T10:19:37;6.70;;;4.87;;
14486;SDS011;7329;50.866;4.366;2022-12-18T10:21:53;6.43;;;5.83;;
14486;SDS011;7329;50.866;4.366;2022-12-18T10:24:08;6.40;;;5.60;;
14486;SDS011;7329;50.866;4.366;2022-12-18T10:26:18;6.27;;;4.83;;
14486;SDS011;7329;50.866;4.366;2022-12-18T10:28:20;6.33;;;5.73;;
14486;SDS011;7329;50.866;4.366;2022-12-18T10:30:25;7.30;;;5.70;;
14486;SDS011;7329;50.866;4.366;2022-12-18T10:32:29;7.97;;;5.70;;
14486;SDS011;7329;50.866;4.366;2022-12-18T10:34:32;7.03;;;5.57;;
14486;SDS011;7329;50.866;4.366;2022-12-18T10:36:34;6.17;;;5.13;;
14486;SDS011;7329;50.866;4.366;2022-12-18T10:38:38;6.13;;;5.53;;
14486;SDS011;7329;50.866;4.366;2022-12-18T10:40:47;6.80;;;5.63;;
14486;SDS011;7329;50.866;4.366;2022-12-18T10:43:02;5.60;;;5.00;;
14486;SDS011;7329;50.866;4.366;2022-12-18T10:45:09;6.83;;;5.67;;
14486;SDS011;7329;50.866;4.366;2022-12-18T10:47:14;5.90;;;5.13;;
14486;SDS011;7329;50.866;4.366;2022-12-18T10:49:21;7.47;;;5.77;;
14486;SDS011;7329;50.866;4.366;2022-12-18T10:51:26;7.43;;;5.77;;
14486;SDS011;7329;50.866;4.366;2022-12-18T10:53:30;5.83;;;5.23;;
14486;SDS011;7329;50.866;4.366;2022-12-18T10:55:37;6.70;;;5.10;;
14486;SDS011;7329;50.866;4.366;2022-12-18T10:57:41;6.37;;;5.67;;
14486;SDS011;7329;50.866;4.366;2022-12-18T10:59:51;5.70;;;5.20;;
14486;SDS011;7329;50.866;4.366;2022-12-18T11:01:55;6.50;;;5.23;;
14486;SDS011;7329;50.866;4.366;2022-12-18T11:04:00;5.80;;;5.20;;
14486;SDS011;7329;50.866;4.366;2022-12-18T11:06:05;6.87;;;5.33;;
14486;SDS011;7329;50.866;4.366;2022-12-18T11:08:12;7.40;;;5.80;;
14486;SDS011;7329;50.866;4.366;2022-12-18T11:10:25;6.53;;;5.73;;
14486;SDS011;7329;50.866;4.366;2022-12-18T11:12:33;6.17;;;5.20;;
14486;SDS011;7329;50.866;4.366;2022-12-18T11:14:41;6.60;;;5.30;;
14486;SDS011;7329;50.866;4.366;2022-12-18T11:16:46;5.70;;;5.10;;
14486;SDS011;7329;50.866;4.366;2022-12-18T11:18:49;7.37;;;5.17;;
14486;SDS011;7329;50.866;4.366;2022-12-18T11:20:52;7.43;;;5.23;;
14486;SDS011;7329;50.866;4.366;2022-12-18T11:22:58;6.77;;;6.03;;
14486;SDS011;7329;50.866;4.366;2022-12-18T11:25:03;7.30;;;5.67;;
14486;SDS011;7329;50.866;4.366;2022-12-18T11:27:13;6.80;;;5.33;;
14486;SDS011;7329;50.866;4.366;2022-12-18T11:29:24;6.40;;;5.60;;
14486;SDS011;7329;50.866;4.366;2022-12-18T11:31:33;6.33;;;5.53;;
14486;SDS011;7329;50.866;4.366;2022-12-18T11:33:35;6.53;;;5.20;;
14486;SDS011;7329;50.866;4.366;2022-12-18T11:35:43;7.43;;;5.53;;
14486;SDS011;7329;50.866;4.366;2022-12-18T11:37:50;7.00;;;5.40;;
14486;SDS011;7329;50.866;4.366;2022-12-18T11:40:00;6.50;;;5.30;;
14486;SDS011;7329;50.866;4.366;2022-12-18T11:42:09;6.53;;;5.33;;
14486;SDS011;7329;50.866;4.366;2022-12-18T11:44:18;7.07;;;5.27;;
14486;SDS011;7329;50.866;4.366;2022-12-18T11:46:30;6.07;;;5.27;;
14486;SDS011;7329;50.866;4.366;2022-12-18T11:48:37;6.97;;;4.93;;
14486;SDS011;7329;50.866;4.366;2022-12-18T11:50:46;6.70;;;5.30;;
14486;SDS011;7329;50.866;4.366;2022-12-18T11:52:52;6.20;;;4.90;;
14486;SDS011;7329;50.866;4.366;2022-12-18T11:54:54;5.97;;;5.20;;
14486;SDS011;7329;50.866;4.366;2022-12-18T11:57:03;6.30;;;5.47;;
14486;SDS011;7329;50.866;4.366;2022-12-18T11:59:17;6.87;;;5.43;;
14486;SDS011;7329;50.866;4.366;2022-12-18T12:01:31;6.27;;;5.10;;
14486;SDS011;7329;50.866;4.366;2022-12-18T12:03:55;5.73;;;4.90;;
14486;SDS011;7329;50.866;4.366;2022-12-18T12:06:16;9.60;;;5.13;;
14486;SDS011;7329;50.866;4.366;2022-12-18T12:08:27;5.90;;;5.23;;
14486;SDS011;7329;50.866;4.366;2022-12-18T12:10:41;6.07;;;5.00;;
14486;SDS011;7329;50.866;4.366;2022-12-18T12:12:55;5.97;;;4.97;;
14486;SDS011;7329;50.866;4.366;2022-12-18T12:15:10;6.83;;;5.50;;
14486;SDS011;7329;50.866;4.366;2022-12-18T12:17:23;6.20;;;5.07;;
14486;SDS011;7329;50.866;4.366;2022-12-18T12:19:38;5.80;;;5.00;;
14486;SDS011;7329;50.866;4.366;2022-12-18T12:21:46;6.07;;;5.37;;
14486;SDS011;7329;50.866;4.366;2022-12-18T12:23:56;6.40;;;5.40;;
14486;SDS011;7329;50.866;4.366;2022-12-18T12:26:06;5.40;;;4.90;;
14486;SDS011;7329;50.866;4.366;2022-12-18T12:28:14;6.47;;;5.10;;
14486;SDS011;7329;50.866;4.366;2022-12-18T12:30:26;6.07;;;5.37;;
14486;SDS011;7329;50.866;4.366;2022-12-18T12:32:42;6.83;;;5.27;;
14486;SDS011;7329;50.866;4.366;2022-12-18T12:34:55;6.33;;;5.00;;
14486;SDS011;7329;50.866;4.366;2022-12-18T12:37:11;6.80;;;5.23;;